Carbondale, California
Current Conditions -  °F | °C
As of 2:50 AM on Friday 19 Dec 2014 (Local Time) from KMHR Reporting Station
Broken Clouds Broken Clouds  
Wind Chill: 52°   Ceiling: 6500
Heat Index: 52°   Visibility: 10mi
Dew Point: 52°   Wind: 9mph
Humidity: 100%   Direction: 140°SE
Pressure: 30.17"   Gusts: NA
Location:  38.3354°N, 120.942°W
Report Text: KMHR 191050Z 14008KT 10SM BKN065 11/11 A3017
Loading
Personal Weather Stations






























Interactive Weather Map New forecast layout! Learn more

10-Day Weather Forecast

Advertisements
Track Severe Weather on mobile